createdAt,value
2018-08-22T01:00:34.285Z,0.00
2018-08-22T01:01:34.227Z,0.00
2018-08-22T01:02:34.217Z,0.00
2018-08-22T01:03:34.253Z,0.00
2018-08-22T01:04:34.194Z,0.00
2018-08-22T01:05:34.193Z,0.00
2018-08-22T01:06:34.170Z,0.00
2018-08-22T01:07:34.161Z,0.00
2018-08-22T01:08:34.197Z,0.00
2018-08-22T01:09:34.141Z,0.00
2018-08-22T01:10:34.133Z,0.00
2018-08-22T01:11:34.119Z,0.00
2018-08-22T01:12:34.103Z,0.00
2018-08-22T01:13:34.158Z,0.00
2018-08-22T01:14:34.088Z,0.00
2018-08-22T01:15:34.072Z,0.00
2018-08-22T01:16:34.070Z,0.00
2018-08-22T01:17:34.051Z,0.00
2018-08-22T01:18:34.088Z,0.00
2018-08-22T01:19:34.068Z,0.00
2018-08-22T01:20:34.013Z,0.00
2018-08-22T01:21:34.003Z,0.00
2018-08-22T01:22:34.002Z,0.00
2018-08-22T01:23:34.029Z,0.00
2018-08-22T01:24:33.972Z,0.00
2018-08-22T01:25:33.962Z,0.00
2018-08-22T01:26:33.948Z,0.00
2018-08-22T01:27:33.942Z,0.00
2018-08-22T01:28:33.976Z,0.00
2018-08-22T01:29:33.913Z,0.00
2018-08-22T01:30:33.906Z,0.00
2018-08-22T01:31:33.901Z,0.00
2018-08-22T01:32:33.880Z,0.00
2018-08-22T01:33:33.918Z,0.00
2018-08-22T01:34:33.860Z,0.00
2018-08-22T01:35:33.846Z,0.00
2018-08-22T01:36:33.836Z,0.00
2018-08-22T01:37:33.822Z,0.00
2018-08-22T01:38:33.859Z,0.00
2018-08-22T01:39:33.804Z,0.00
2018-08-22T01:40:33.791Z,0.00
2018-08-22T01:41:33.779Z,0.00
2018-08-22T01:42:33.771Z,0.00
2018-08-22T01:43:33.805Z,0.00
2018-08-22T01:44:33.747Z,0.00
2018-08-22T01:45:33.735Z,0.00
2018-08-22T01:46:33.725Z,0.00
2018-08-22T01:47:33.717Z,0.00
2018-08-22T01:48:33.746Z,0.00
2018-08-22T01:49:33.691Z,0.00
2018-08-22T01:50:33.687Z,0.00
2018-08-22T01:51:33.669Z,0.00
2018-08-22T01:52:33.657Z,0.00
2018-08-22T01:53:33.689Z,0.00
2018-08-22T01:54:33.633Z,0.00
2018-08-22T01:55:33.622Z,0.00
2018-08-22T01:56:33.627Z,0.00
2018-08-22T01:57:33.600Z,0.00
2018-08-22T01:58:33.640Z,0.00
2018-08-22T01:59:33.579Z,0.00
2018-08-22T02:00:33.573Z,0.00
2018-08-22T02:01:33.558Z,0.00
2018-08-22T02:02:33.543Z,0.00
2018-08-22T02:03:33.578Z,0.00
2018-08-22T02:04:33.523Z,0.00
2018-08-22T02:05:33.514Z,0.00
2018-08-22T02:06:33.499Z,0.00
2018-08-22T02:07:33.489Z,0.00
2018-08-22T02:08:33.528Z,0.00
2018-08-22T02:09:33.472Z,0.00
2018-08-22T02:10:33.455Z,0.00
2018-08-22T02:11:33.447Z,0.00
2018-08-22T02:12:33.433Z,0.00
2018-08-22T02:13:33.468Z,0.00
2018-08-22T02:14:33.413Z,0.00
2018-08-22T02:15:33.401Z,0.00
2018-08-22T02:16:33.389Z,0.00
2018-08-22T02:17:33.396Z,0.00
2018-08-22T02:18:33.372Z,0.00
2018-08-22T02:19:33.419Z,0.00
2018-08-22T02:20:33.343Z,0.00
2018-08-22T02:21:33.330Z,0.00
2018-08-22T02:22:33.326Z,0.00
2018-08-22T02:23:33.310Z,0.00
2018-08-22T02:24:33.345Z,0.00
2018-08-22T02:25:33.288Z,0.00
2018-08-22T02:26:33.277Z,0.00
2018-08-22T02:27:33.269Z,0.00
2018-08-22T02:28:33.258Z,0.00
2018-08-22T02:29:33.300Z,0.00
2018-08-22T02:30:33.231Z,0.00
2018-08-22T02:31:33.223Z,0.00
2018-08-22T02:32:33.211Z,0.00
2018-08-22T02:33:33.197Z,0.00
2018-08-22T02:34:33.234Z,0.00
2018-08-22T02:35:33.176Z,0.00
2018-08-22T02:36:33.170Z,0.00
2018-08-22T02:37:33.165Z,0.00
2018-08-22T02:38:33.141Z,0.00
2018-08-22T02:39:33.180Z,0.00
2018-08-22T02:40:33.128Z,0.00
2018-08-22T02:41:33.111Z,0.00
2018-08-22T02:42:33.097Z,0.00
2018-08-22T02:43:33.101Z,0.00
2018-08-22T02:44:33.123Z,0.00
2018-08-22T02:45:33.064Z,0.00
2018-08-22T02:46:33.059Z,0.00
2018-08-22T02:47:33.043Z,0.00
2018-08-22T02:48:33.031Z,0.00
2018-08-22T02:49:33.066Z,0.00
2018-08-22T02:50:33.015Z,0.00
2018-08-22T02:51:33.009Z,0.00
2018-08-22T02:52:32.986Z,0.00
2018-08-22T02:53:32.975Z,0.00
2018-08-22T02:54:33.015Z,0.00
2018-08-22T02:55:32.952Z,0.00
2018-08-22T02:56:32.945Z,0.00
2018-08-22T02:57:32.929Z,0.00
2018-08-22T02:58:32.920Z,0.00
2018-08-22T02:59:32.964Z,0.00
2018-08-22T03:00:32.896Z,0.00
2018-08-22T03:01:32.885Z,0.00
2018-08-22T03:02:32.877Z,0.00
2018-08-22T03:03:32.862Z,0.00
2018-08-22T03:04:32.902Z,0.00
2018-08-22T03:05:32.839Z,0.00
2018-08-22T03:06:32.829Z,0.00
2018-08-22T03:07:32.822Z,0.00
2018-08-22T03:08:32.806Z,0.00
2018-08-22T03:09:32.848Z,0.00
2018-08-22T03:10:32.788Z,0.00
2018-08-22T03:11:32.770Z,0.00
2018-08-22T03:12:32.763Z,0.00
2018-08-22T03:13:32.747Z,0.00
2018-08-22T03:14:32.784Z,0.00
2018-08-22T03:15:32.734Z,0.00
2018-08-22T03:16:32.719Z,0.00
2018-08-22T03:17:32.705Z,0.00
2018-08-22T03:18:32.694Z,0.00
2018-08-22T03:19:32.727Z,0.00
2018-08-22T03:20:32.676Z,0.00
2018-08-22T03:21:32.660Z,0.00
2018-08-22T03:22:32.648Z,0.00
2018-08-22T03:23:32.641Z,0.00
2018-08-22T03:24:32.672Z,0.00
2018-08-22T03:25:32.614Z,0.00
2018-08-22T03:26:32.606Z,0.00
2018-08-22T03:27:32.602Z,0.00
2018-08-22T03:28:32.580Z,0.00
2018-08-22T03:29:32.625Z,0.00
2018-08-22T03:30:32.567Z,0.00
2018-08-22T03:31:32.550Z,0.00
2018-08-22T03:32:32.537Z,0.00
2018-08-22T03:33:32.526Z,0.00
2018-08-22T03:34:32.575Z,0.00
2018-08-22T03:35:32.502Z,0.00
2018-08-22T03:36:32.490Z,0.00
2018-08-22T03:37:32.482Z,0.00
2018-08-22T03:38:32.468Z,0.00
2018-08-22T03:39:32.503Z,0.00
2018-08-22T03:40:32.454Z,0.00
2018-08-22T03:41:32.453Z,0.00
2018-08-22T03:42:32.421Z,0.00
2018-08-22T03:43:32.415Z,0.00
2018-08-22T03:44:32.444Z,0.00
2018-08-22T03:45:32.387Z,0.00
2018-08-22T03:46:32.375Z,0.00
2018-08-22T03:47:32.362Z,0.00
2018-08-22T03:48:32.351Z,0.00
2018-08-22T03:49:32.386Z,0.00
2018-08-22T03:50:32.350Z,0.00
2018-08-22T03:51:32.316Z,0.00
2018-08-22T03:52:32.311Z,0.00
2018-08-22T03:53:32.294Z,0.00
2018-08-22T03:54:32.338Z,0.00
2018-08-22T03:55:32.276Z,0.00
2018-08-22T03:56:32.275Z,0.00
2018-08-22T03:57:32.246Z,0.00
2018-08-22T03:58:32.240Z,0.00
2018-08-22T03:59:32.270Z,0.00
2018-08-22T04:00:32.220Z,0.00
2018-08-22T04:01:32.202Z,0.00
2018-08-22T04:02:32.191Z,0.00
2018-08-22T04:03:32.183Z,4.00
2018-08-22T04:04:32.215Z,4.00
2018-08-22T04:05:32.157Z,0.00
2018-08-22T04:06:32.149Z,4.00
2018-08-22T04:07:32.135Z,4.00
2018-08-22T04:08:32.121Z,4.00
2018-08-22T04:09:32.163Z,4.00
2018-08-22T04:10:32.101Z,4.00
2018-08-22T04:11:32.089Z,8.00
2018-08-22T04:12:32.082Z,8.00
2018-08-22T04:13:32.064Z,8.00
2018-08-22T04:14:32.109Z,12.00
2018-08-22T04:15:32.041Z,12.00
2018-08-22T04:16:32.031Z,12.00
2018-08-22T04:17:32.024Z,12.00
2018-08-22T04:18:32.023Z,16.00
2018-08-22T04:19:32.044Z,20.00
2018-08-22T04:20:31.988Z,20.00
2018-08-22T04:21:31.976Z,24.00
2018-08-22T04:22:31.970Z,24.00
2018-08-22T04:23:31.961Z,28.00
2018-08-22T04:24:31.988Z,32.00
2018-08-22T04:25:31.934Z,32.00
2018-08-22T04:26:31.926Z,40.00
2018-08-22T04:27:31.909Z,40.00
2018-08-22T04:28:31.897Z,44.00
2018-08-22T04:29:31.930Z,48.00
2018-08-22T04:30:31.881Z,52.00
2018-08-22T04:31:31.862Z,56.00
2018-08-22T04:32:31.856Z,60.00
2018-08-22T04:33:31.840Z,68.00
2018-08-22T04:34:31.914Z,72.00
2018-08-22T04:35:31.839Z,76.00
2018-08-22T04:36:31.805Z,84.00
2018-08-22T04:37:31.810Z,88.00
2018-08-22T04:38:31.786Z,96.00
2018-08-22T04:39:31.816Z,104.00
2018-08-22T04:40:31.761Z,108.00
2018-08-22T04:41:31.751Z,116.00
2018-08-22T04:42:31.736Z,124.00
2018-08-22T04:43:31.724Z,132.00
2018-08-22T04:44:31.758Z,136.00
2018-08-22T04:45:31.704Z,144.00
2018-08-22T04:46:31.694Z,152.00
2018-08-22T04:47:31.681Z,160.00
2018-08-22T04:48:31.667Z,168.00
2018-08-22T04:49:31.702Z,176.00
2018-08-22T04:50:31.646Z,184.00
2018-08-22T04:51:31.637Z,192.00
2018-08-22T04:52:31.624Z,200.00
2018-08-22T04:53:31.612Z,212.00
2018-08-22T04:54:31.646Z,220.00
2018-08-22T04:55:31.596Z,228.00
2018-08-22T04:56:31.576Z,240.00
2018-08-22T04:57:31.572Z,248.00
2018-08-22T04:58:31.558Z,260.00
2018-08-22T04:59:31.603Z,264.00
2018-08-22T05:00:31.535Z,276.00
2018-08-22T05:01:31.526Z,284.00
2018-08-22T05:02:31.513Z,296.00
2018-08-22T05:03:31.505Z,304.00
2018-08-22T05:04:31.534Z,316.00
2018-08-22T05:05:31.478Z,320.00
2018-08-22T05:06:31.470Z,332.00
2018-08-22T05:07:31.460Z,344.00
2018-08-22T05:08:31.450Z,352.00
2018-08-22T05:09:31.484Z,360.00
2018-08-22T05:10:31.426Z,368.00
2018-08-22T05:11:31.413Z,376.00
2018-08-22T05:12:31.441Z,388.00
2018-08-22T05:13:31.393Z,396.00
2018-08-22T05:14:31.426Z,400.00
2018-08-22T05:15:31.366Z,408.00
2018-08-22T05:16:31.356Z,420.00
2018-08-22T05:17:31.345Z,424.00
2018-08-22T05:18:31.339Z,432.00
2018-08-22T05:19:31.323Z,444.00
2018-08-22T05:20:31.359Z,452.00
2018-08-22T05:21:31.304Z,464.00
2018-08-22T05:22:31.290Z,476.00
2018-08-22T05:23:31.278Z,480.00
2018-08-22T05:24:31.269Z,492.00
2018-08-22T05:25:31.307Z,504.00
2018-08-22T05:26:31.247Z,512.00
2018-08-22T05:27:31.251Z,520.00
2018-08-22T05:28:31.226Z,532.00
2018-08-22T05:29:31.261Z,536.00
2018-08-22T05:30:31.247Z,548.00
2018-08-22T05:31:31.194Z,556.00
2018-08-22T05:32:31.182Z,560.00
2018-08-22T05:33:31.171Z,568.00
2018-08-22T05:34:31.156Z,576.00
2018-08-22T05:35:31.190Z,580.00
2018-08-22T05:36:31.145Z,584.00
2018-08-22T05:37:31.134Z,588.00
2018-08-22T05:38:31.110Z,592.00
2018-08-22T05:39:31.106Z,596.00
2018-08-22T05:40:31.174Z,604.00
2018-08-22T05:41:31.080Z,608.00
2018-08-22T05:42:31.073Z,616.00
2018-08-22T05:43:31.055Z,624.00
2018-08-22T05:44:31.050Z,628.00
2018-08-22T05:45:31.084Z,640.00
2018-08-22T05:46:31.023Z,648.00
2018-08-22T05:47:31.015Z,656.00
2018-08-22T05:48:31.003Z,668.00
2018-08-22T05:49:30.985Z,640.00
2018-08-22T05:50:31.028Z,676.00
2018-08-22T05:51:30.970Z,732.00
2018-08-22T05:52:30.954Z,768.00
2018-08-22T05:53:30.943Z,824.00
2018-08-22T05:54:30.938Z,952.00
2018-08-22T05:55:30.970Z,1000.00
2018-08-22T05:56:30.922Z,904.00
2018-08-22T05:57:30.900Z,864.00
2018-08-22T05:58:30.893Z,900.00
2018-08-22T05:59:30.882Z,1000.00
2018-08-22T06:00:30.965Z,1148.00
2018-08-22T06:01:30.854Z,1236.00
2018-08-22T06:02:30.839Z,1472.00
2018-08-22T06:03:30.829Z,1616.00
2018-08-22T06:04:30.821Z,1384.00
2018-08-22T06:05:30.853Z,1244.00
2018-08-22T06:06:30.796Z,1300.00
2018-08-22T06:07:30.787Z,1376.00
2018-08-22T06:08:30.771Z,1504.00
2018-08-22T06:09:30.760Z,1728.00
2018-08-22T06:10:30.807Z,2024.00
2018-08-22T06:11:30.763Z,2120.00
2018-08-22T06:12:30.724Z,2108.00
2018-08-22T06:13:30.715Z,1764.00
2018-08-22T06:14:30.702Z,1288.00
2018-08-22T06:15:30.757Z,1204.00
2018-08-22T06:16:30.679Z,1292.00
2018-08-22T06:17:30.672Z,1548.00
2018-08-22T06:18:30.657Z,1992.00
2018-08-22T06:19:30.650Z,2488.00
2018-08-22T06:20:30.687Z,2420.00
2018-08-22T06:21:30.632Z,1992.00
2018-08-22T06:22:30.615Z,1680.00
2018-08-22T06:23:30.601Z,1716.00
2018-08-22T06:24:30.596Z,1944.00
2018-08-22T06:25:30.708Z,2396.00
2018-08-22T06:26:30.569Z,2868.00
2018-08-22T06:27:30.558Z,3008.00
2018-08-22T06:28:30.555Z,3056.00
2018-08-22T06:29:30.537Z,3264.00
2018-08-22T06:30:30.569Z,3456.00
2018-08-22T06:31:30.523Z,3476.00
2018-08-22T06:32:30.518Z,3324.00
2018-08-22T06:33:30.491Z,3196.00
2018-08-22T06:34:30.484Z,3240.00
2018-08-22T06:35:30.517Z,3264.00
2018-08-22T06:36:30.458Z,3664.00
2018-08-22T06:37:30.445Z,4140.00
2018-08-22T06:38:30.436Z,4344.00
2018-08-22T06:39:30.423Z,4356.00
2018-08-22T06:40:30.471Z,3904.00
2018-08-22T06:41:30.401Z,3056.00
2018-08-22T06:42:30.407Z,2284.00
2018-08-22T06:43:30.377Z,1688.00
2018-08-22T06:44:30.367Z,1584.00
2018-08-22T06:45:30.358Z,1404.00
2018-08-22T06:46:30.390Z,1372.00
2018-08-22T06:47:30.335Z,1424.00
2018-08-22T06:48:30.350Z,1468.00
2018-08-22T06:49:30.309Z,1572.00
2018-08-22T06:50:30.300Z,1772.00
2018-08-22T06:51:30.332Z,2124.00
2018-08-22T06:52:30.280Z,2588.00
2018-08-22T06:53:30.296Z,2656.00
2018-08-22T06:54:30.253Z,2372.00
2018-08-22T06:55:30.244Z,2260.00
2018-08-22T06:56:30.282Z,2156.00
2018-08-22T06:57:30.227Z,2168.00
2018-08-22T06:58:30.211Z,2364.00
2018-08-22T06:59:30.258Z,3400.00
2018-08-22T07:00:30.190Z,4272.00
2018-08-22T07:01:30.229Z,3716.00
2018-08-22T07:02:30.173Z,2824.00
2018-08-22T07:03:30.155Z,1756.00
2018-08-22T07:04:30.147Z,1772.00
2018-08-22T07:05:30.143Z,2592.00
2018-08-22T07:06:30.206Z,3268.00
2018-08-22T07:07:30.113Z,2456.00
2018-08-22T07:08:30.118Z,1672.00
2018-08-22T07:09:30.093Z,1664.00
2018-08-22T07:10:30.078Z,1616.00
2018-08-22T07:11:30.114Z,1636.00
2018-08-22T07:12:30.057Z,1732.00
2018-08-22T07:13:30.048Z,2184.00
2018-08-22T07:14:30.039Z,2072.00
2018-08-22T07:15:30.033Z,2032.00
2018-08-22T07:16:30.063Z,1980.00
2018-08-22T07:17:30.005Z,1616.00
2018-08-22T07:18:29.995Z,1452.00
2018-08-22T07:19:29.994Z,1536.00
2018-08-22T07:20:29.988Z,1692.00
2018-08-22T07:21:30.005Z,2000.00
2018-08-22T07:22:29.945Z,2272.00
2018-08-22T07:23:29.955Z,2316.00
2018-08-22T07:24:29.922Z,1972.00
2018-08-22T07:25:29.919Z,1632.00
2018-08-22T07:26:29.944Z,1504.00
2018-08-22T07:27:29.987Z,1708.00
2018-08-22T07:28:29.879Z,1828.00
2018-08-22T07:29:29.864Z,2076.00
2018-08-22T07:30:29.858Z,2408.00
2018-08-22T07:31:29.962Z,1704.00
2018-08-22T07:32:29.831Z,1608.00
2018-08-22T07:33:29.820Z,1624.00
2018-08-22T07:34:29.821Z,1696.00
2018-08-22T07:35:29.798Z,2128.00
2018-08-22T07:36:29.840Z,2260.00
2018-08-22T07:37:29.782Z,1680.00
2018-08-22T07:38:29.761Z,1540.00
2018-08-22T07:39:29.754Z,1556.00
2018-08-22T07:40:29.762Z,1504.00
2018-08-22T07:41:29.778Z,1556.00
2018-08-22T07:42:29.717Z,1600.00
2018-08-22T07:43:29.710Z,1636.00
2018-08-22T07:44:29.702Z,1552.00
2018-08-22T07:45:29.694Z,1544.00
2018-08-22T07:46:29.674Z,1556.00
2018-08-22T07:47:29.713Z,1544.00
2018-08-22T07:48:29.666Z,1568.00
2018-08-22T07:49:29.639Z,1576.00
2018-08-22T07:50:29.633Z,1592.00
2018-08-22T07:51:29.622Z,1616.00
2018-08-22T07:52:29.648Z,1668.00
2018-08-22T07:53:29.635Z,1712.00
2018-08-22T07:54:29.582Z,1644.00
2018-08-22T07:55:29.569Z,1668.00
2018-08-22T07:56:29.579Z,1668.00
2018-08-22T07:57:29.594Z,1692.00
2018-08-22T07:58:29.541Z,1668.00
2018-08-22T07:59:29.537Z,1676.00
2018-08-22T08:00:29.515Z,1676.00
2018-08-22T08:01:29.506Z,1756.00
2018-08-22T08:02:29.536Z,1704.00
2018-08-22T08:03:29.521Z,1700.00
2018-08-22T08:04:29.470Z,1712.00
2018-08-22T08:05:29.491Z,1720.00
2018-08-22T08:06:29.445Z,1740.00
2018-08-22T08:07:29.484Z,1760.00
2018-08-22T08:08:29.473Z,1760.00
2018-08-22T08:09:29.420Z,1776.00
2018-08-22T08:10:29.406Z,1792.00
2018-08-22T08:11:29.390Z,1816.00
2018-08-22T08:12:29.423Z,1856.00
2018-08-22T08:13:29.372Z,1892.00
2018-08-22T08:14:29.359Z,1944.00
2018-08-22T08:15:29.343Z,2256.00
2018-08-22T08:16:29.332Z,2672.00
2018-08-22T08:17:29.368Z,2916.00
2018-08-22T08:18:29.310Z,2436.00
2018-08-22T08:19:29.299Z,3776.00
2018-08-22T08:20:29.296Z,4228.00
2018-08-22T08:21:29.278Z,4628.00
2018-08-22T08:22:29.323Z,2788.00
2018-08-22T08:23:29.255Z,2292.00
2018-08-22T08:24:29.247Z,2624.00
2018-08-22T08:25:29.234Z,2664.00
2018-08-22T08:26:29.277Z,2596.00
2018-08-22T08:27:29.257Z,2808.00
2018-08-22T08:28:29.198Z,2592.00
2018-08-22T08:29:29.187Z,2720.00
2018-08-22T08:30:29.192Z,3440.00
2018-08-22T08:31:29.166Z,4048.00
2018-08-22T08:32:29.202Z,3256.00
2018-08-22T08:33:29.154Z,2948.00
2018-08-22T08:34:29.134Z,2604.00
2018-08-22T08:35:29.128Z,3092.00
2018-08-22T08:36:29.114Z,3180.00
2018-08-22T08:37:29.146Z,2984.00
2018-08-22T08:38:29.090Z,2672.00
2018-08-22T08:39:29.076Z,4412.00
2018-08-22T08:40:29.119Z,6512.00
2018-08-22T08:41:29.098Z,5404.00
2018-08-22T08:42:29.128Z,4664.00
2018-08-22T08:43:29.068Z,5204.00
2018-08-22T08:44:29.021Z,3820.00
2018-08-22T08:45:29.009Z,2632.00
2018-08-22T08:46:29.002Z,2428.00
2018-08-22T08:47:29.039Z,2460.00
2018-08-22T08:48:28.980Z,2496.00
2018-08-22T08:49:28.981Z,2660.00
2018-08-22T08:50:28.999Z,2304.00
2018-08-22T08:51:28.944Z,2196.00
2018-08-22T08:52:28.976Z,2268.00
2018-08-22T08:53:28.926Z,2320.00
2018-08-22T08:54:28.911Z,2676.00
2018-08-22T08:55:28.902Z,2300.00
2018-08-22T08:56:28.886Z,2208.00
2018-08-22T08:57:29.023Z,2200.00
2018-08-22T08:58:28.870Z,2284.00
2018-08-22T08:59:28.854Z,2484.00
2018-08-22T09:00:28.844Z,2504.00
2018-08-22T09:01:28.832Z,3880.00
2018-08-22T09:02:28.866Z,2664.00
2018-08-22T09:03:28.822Z,2280.00
2018-08-22T09:04:28.800Z,2480.00
2018-08-22T09:05:28.788Z,5448.00
2018-08-22T09:06:28.787Z,6268.00
2018-08-22T09:07:28.815Z,3636.00
2018-08-22T09:08:28.768Z,2932.00
2018-08-22T09:09:28.763Z,2720.00
2018-08-22T09:10:28.733Z,2300.00
2018-08-22T09:11:28.722Z,2300.00
2018-08-22T09:12:28.760Z,2328.00
2018-08-22T09:13:28.701Z,2336.00
2018-08-22T09:14:28.694Z,2332.00
2018-08-22T09:15:28.737Z,2332.00
2018-08-22T09:16:28.666Z,2328.00
2018-08-22T09:17:28.714Z,2364.00
2018-08-22T09:18:28.646Z,2424.00
2018-08-22T09:19:28.646Z,2480.00
2018-08-22T09:20:28.622Z,3340.00
2018-08-22T09:21:28.666Z,10888.00
2018-08-22T09:22:28.654Z,11116.00
2018-08-22T09:23:28.595Z,3716.00
2018-08-22T09:24:28.579Z,2460.00
2018-08-22T09:25:28.574Z,2464.00
2018-08-22T09:26:28.583Z,2560.00
2018-08-22T09:27:28.590Z,2512.00
2018-08-22T09:28:28.535Z,2564.00
2018-08-22T09:29:28.576Z,2636.00
2018-08-22T09:30:28.546Z,2664.00
2018-08-22T09:31:28.513Z,2872.00
2018-08-22T09:32:28.545Z,4920.00
2018-08-22T09:33:28.478Z,4736.00
2018-08-22T09:34:28.493Z,4456.00
2018-08-22T09:35:28.495Z,4964.00
2018-08-22T09:36:28.473Z,16512.00
2018-08-22T09:37:28.440Z,38112.00
2018-08-22T09:38:28.475Z,25120.00
2018-08-22T09:39:28.484Z,10560.00
2018-08-22T09:40:28.442Z,21088.00
2018-08-22T09:41:28.409Z,3964.00
2018-08-22T09:42:28.386Z,2708.00
2018-08-22T09:43:28.421Z,7408.00
2018-08-22T09:44:28.359Z,4224.00
2018-08-22T09:45:28.347Z,2832.00
2018-08-22T09:46:28.346Z,3420.00
2018-08-22T09:47:28.331Z,2668.00
2018-08-22T09:48:28.364Z,2624.00
2018-08-22T09:49:28.303Z,2644.00
2018-08-22T09:50:28.323Z,2648.00
2018-08-22T09:51:28.283Z,2676.00
2018-08-22T09:52:28.274Z,2664.00
2018-08-22T09:53:28.305Z,2696.00
2018-08-22T09:54:28.253Z,2756.00
2018-08-22T09:55:28.237Z,2788.00
2018-08-22T09:56:28.257Z,4112.00
2018-08-22T09:57:28.216Z,4112.00
2018-08-22T09:58:28.263Z,9928.00
2018-08-22T09:59:28.201Z,12196.00
2018-08-22T10:00:28.185Z,11048.00
2018-08-22T10:01:28.169Z,7284.00
2018-08-22T10:02:28.166Z,1564.00
2018-08-22T10:03:28.193Z,9736.00
2018-08-22T10:04:28.138Z,5144.00
2018-08-22T10:05:28.129Z,4120.00
2018-08-22T10:06:28.243Z,8904.00
2018-08-22T10:07:28.164Z,13832.00
2018-08-22T10:08:28.142Z,10540.00
2018-08-22T10:09:28.083Z,7792.00
2018-08-22T10:10:28.076Z,11992.00
2018-08-22T10:11:28.077Z,18816.00
2018-08-22T10:12:28.054Z,21248.00
2018-08-22T10:13:28.091Z,12604.00
2018-08-22T10:14:28.036Z,3368.00
2018-08-22T10:15:28.018Z,5336.00
2018-08-22T10:16:28.016Z,4256.00
2018-08-22T10:17:27.996Z,3224.00
2018-08-22T10:18:28.063Z,3160.00
2018-08-22T10:19:27.978Z,3208.00
2018-08-22T10:20:27.964Z,3276.00
2018-08-22T10:21:27.968Z,3300.00
2018-08-22T10:22:27.952Z,3264.00
2018-08-22T10:23:27.980Z,3324.00
2018-08-22T10:24:27.918Z,3348.00
2018-08-22T10:25:27.912Z,3632.00
2018-08-22T10:26:27.910Z,3404.00
2018-08-22T10:27:27.895Z,4036.00
2018-08-22T10:28:27.927Z,4160.00
2018-08-22T10:29:27.865Z,3564.00
2018-08-22T10:30:27.854Z,3540.00
2018-08-22T10:31:27.855Z,3652.00
2018-08-22T10:32:27.830Z,6476.00
2018-08-22T10:33:27.873Z,14452.00
2018-08-22T10:34:27.817Z,29760.00
2018-08-22T10:35:27.801Z,24864.00
2018-08-22T10:36:27.791Z,5024.00
2018-08-22T10:37:27.790Z,5148.00
2018-08-22T10:38:27.927Z,9740.00
2018-08-22T10:39:27.854Z,20992.00
2018-08-22T10:40:27.745Z,17312.00
2018-08-22T10:41:27.735Z,9544.00
2018-08-22T10:42:27.721Z,8940.00
2018-08-22T10:43:27.799Z,10648.00
2018-08-22T10:44:27.771Z,23808.00
2018-08-22T10:45:27.705Z,20608.00
2018-08-22T10:46:27.701Z,11204.00
2018-08-22T10:47:27.670Z,6564.00
2018-08-22T10:48:27.741Z,7216.00
2018-08-22T10:49:27.646Z,6240.00
2018-08-22T10:50:27.697Z,7164.00
2018-08-22T10:51:27.628Z,4920.00
2018-08-22T10:52:27.610Z,4056.00
2018-08-22T10:53:27.654Z,9460.00
2018-08-22T10:54:27.619Z,14880.00
2018-08-22T10:55:27.626Z,5852.00
2018-08-22T10:56:27.660Z,12004.00
2018-08-22T10:57:27.567Z,17536.00
2018-08-22T10:58:27.601Z,26432.00
2018-08-22T10:59:27.544Z,18784.00
2018-08-22T11:00:27.528Z,16320.00
2018-08-22T11:01:27.514Z,17920.00
2018-08-22T11:02:27.509Z,3704.00
2018-08-22T11:03:27.539Z,3732.00
2018-08-22T11:04:27.481Z,3616.00
2018-08-22T11:05:27.469Z,3612.00
2018-08-22T11:06:27.460Z,3892.00
2018-08-22T11:07:27.455Z,3600.00
2018-08-22T11:08:27.485Z,3636.00
2018-08-22T11:09:27.442Z,3636.00
2018-08-22T11:10:27.418Z,3768.00
2018-08-22T11:11:27.404Z,3772.00
2018-08-22T11:12:27.392Z,3812.00
2018-08-22T11:13:27.440Z,8668.00
2018-08-22T11:14:27.374Z,7496.00
2018-08-22T11:15:27.361Z,6980.00
2018-08-22T11:16:27.359Z,4676.00
2018-08-22T11:17:27.342Z,3620.00
2018-08-22T11:18:27.377Z,3460.00
2018-08-22T11:19:27.318Z,3508.00
2018-08-22T11:20:27.318Z,3528.00
2018-08-22T11:21:27.296Z,3564.00
2018-08-22T11:22:27.295Z,3500.00
2018-08-22T11:23:27.325Z,3512.00
2018-08-22T11:24:27.263Z,5080.00
2018-08-22T11:25:27.255Z,3740.00
2018-08-22T11:26:27.241Z,4600.00
2018-08-22T11:27:27.234Z,5324.00
2018-08-22T11:28:27.266Z,7656.00
2018-08-22T11:29:27.210Z,5656.00
2018-08-22T11:30:27.199Z,3596.00
2018-08-22T11:31:27.185Z,3608.00
2018-08-22T11:32:27.174Z,5048.00
2018-08-22T11:33:27.214Z,5572.00
2018-08-22T11:34:27.198Z,4472.00
2018-08-22T11:35:27.146Z,4292.00
2018-08-22T11:36:27.133Z,3804.00
2018-08-22T11:37:27.121Z,23104.00
2018-08-22T11:38:27.159Z,14332.00
2018-08-22T11:39:27.107Z,54656.00
2018-08-22T11:40:27.088Z,45472.00
2018-08-22T11:41:27.081Z,11648.00
2018-08-22T11:42:27.071Z,4228.00
2018-08-22T11:43:27.102Z,3508.00
2018-08-22T11:44:27.069Z,3652.00
2018-08-22T11:45:27.036Z,8924.00
2018-08-22T11:46:27.025Z,11500.00
2018-08-22T11:47:27.012Z,4036.00
2018-08-22T11:48:27.005Z,3452.00
2018-08-22T11:49:27.039Z,3652.00
2018-08-22T11:50:26.981Z,10428.00
2018-08-22T11:51:26.973Z,3556.00
2018-08-22T11:52:26.960Z,6056.00
2018-08-22T11:53:26.948Z,7368.00
2018-08-22T11:54:26.986Z,16420.00
2018-08-22T11:55:26.930Z,12932.00
2018-08-22T11:56:26.914Z,11304.00
2018-08-22T11:57:26.904Z,10936.00
2018-08-22T11:58:26.892Z,27648.00
2018-08-22T11:59:26.930Z,66016.00
2018-08-22T12:00:26.872Z,64928.00
2018-08-22T12:01:26.864Z,67968.00
2018-08-22T12:02:26.851Z,76576.00
2018-08-22T12:03:26.847Z,66816.00
2018-08-22T12:04:26.902Z,56704.00
2018-08-22T12:05:26.817Z,82176.00
2018-08-22T12:06:26.811Z,87136.00
2018-08-22T12:07:26.796Z,87872.00
2018-08-22T12:08:26.794Z,89888.00
2018-08-22T12:09:26.821Z,90400.00
2018-08-22T12:10:26.811Z,90688.00
2018-08-22T12:11:26.757Z,92224.00
2018-08-22T12:12:26.743Z,90880.00
2018-08-22T12:13:26.736Z,88448.00
2018-08-22T12:14:26.779Z,90752.00
2018-08-22T12:15:26.759Z,89920.00
2018-08-22T12:16:26.703Z,87424.00
2018-08-22T12:17:26.692Z,85632.00
2018-08-22T12:18:26.682Z,85088.00
2018-08-22T12:19:26.738Z,88320.00
2018-08-22T12:20:26.690Z,86944.00
2018-08-22T12:21:26.663Z,78080.00
2018-08-22T12:22:26.656Z,65024.00
2018-08-22T12:23:26.694Z,58880.00
2018-08-22T12:24:26.620Z,66368.00
2018-08-22T12:25:26.655Z,73440.00
2018-08-22T12:26:26.608Z,81760.00
2018-08-22T12:27:26.592Z,84768.00
2018-08-22T12:28:26.579Z,82816.00
2018-08-22T12:29:26.570Z,83744.00
2018-08-22T12:30:26.613Z,83488.00
2018-08-22T12:31:26.548Z,80896.00
2018-08-22T12:32:26.564Z,79904.00
2018-08-22T12:33:26.529Z,77184.00
2018-08-22T12:34:26.522Z,80800.00
2018-08-22T12:35:26.552Z,80544.00
2018-08-22T12:36:26.499Z,78688.00
2018-08-22T12:37:26.505Z,75264.00
2018-08-22T12:38:26.485Z,71840.00
2018-08-22T12:39:26.470Z,71776.00
2018-08-22T12:40:26.526Z,75424.00
2018-08-22T12:41:26.445Z,75520.00
2018-08-22T12:42:26.446Z,46400.00
2018-08-22T12:43:26.429Z,8456.00
2018-08-22T12:44:26.443Z,3164.00
2018-08-22T12:45:26.457Z,3040.00
2018-08-22T12:46:26.399Z,2984.00
2018-08-22T12:47:26.398Z,2876.00
2018-08-22T12:48:26.378Z,2836.00
2018-08-22T12:49:26.368Z,2768.00
2018-08-22T12:50:26.433Z,2732.00
2018-08-22T12:51:26.346Z,2732.00
2018-08-22T12:52:26.337Z,2700.00
2018-08-22T12:53:26.324Z,2668.00
2018-08-22T12:54:26.319Z,2628.00
2018-08-22T12:55:26.352Z,2628.00
2018-08-22T12:56:26.301Z,2556.00
2018-08-22T12:57:26.306Z,2524.00
2018-08-22T12:58:26.276Z,2512.00
2018-08-22T12:59:26.264Z,2444.00
2018-08-22T13:00:26.308Z,2396.00
2018-08-22T13:01:26.249Z,2376.00
2018-08-22T13:02:26.235Z,2368.00
2018-08-22T13:03:26.222Z,2412.00
2018-08-22T13:04:26.219Z,2360.00
2018-08-22T13:05:26.257Z,2344.00
2018-08-22T13:06:26.193Z,2316.00
2018-08-22T13:07:26.182Z,2296.00
2018-08-22T13:08:26.171Z,2280.00
2018-08-22T13:09:26.171Z,2284.00
2018-08-22T13:10:26.196Z,2272.00
2018-08-22T13:11:26.192Z,2264.00
2018-08-22T13:12:26.126Z,2272.00
2018-08-22T13:13:26.117Z,2256.00
2018-08-22T13:14:26.107Z,2256.00
2018-08-22T13:15:26.148Z,2240.00
2018-08-22T13:16:26.084Z,2240.00
2018-08-22T13:17:26.076Z,2240.00
2018-08-22T13:18:26.065Z,2240.00
2018-08-22T13:19:26.050Z,2240.00
2018-08-22T13:20:26.086Z,2228.00
2018-08-22T13:21:26.043Z,2212.00
2018-08-22T13:22:26.019Z,2192.00
2018-08-22T13:23:26.008Z,2196.00
2018-08-22T13:24:25.999Z,2172.00